ZAG weather

Zagreb Airport
Zagreb, Zagreb (city), Croatia

Public forecast

Using degrees Celsius for public forecast. Weather courtesy of forecast.io.

METAR (pilot weather report)

Retrieved 2019/04/18 23:30 UTC (27 minutes ago):

LDZA 182330Z 24003KT CAVOK 05/03 Q1029 NOSIG

TAF (pilot weather forecast)

Retrieved 2019/04/18 18:27 UTC (5 hours ago):

TAF LDZA 181725Z 1818/1918 VRB02KT CAVOK TX20/1913Z TN06/1904Z